Time;durP1;ratioP1;P1;durP2;ratioP2;P2;SDS_P1;SDS_P2;PMS_P1;PMS_P2;Temp;Humidity;BMP_temperature;BMP_pressure;BME280_temperature;BME280_humidity;BME280_pressure;Samples;Min_cycle;Max_cycle;Signal;HPM_P1;HPM_P2
2022/01/23 00:02:03;;;;;;;18.40;5.45;;;5.80;99.90;;;;;;6158248;23;20017;-82
2022/01/23 00:04:29;;;;;;;18.15;5.20;;;5.80;99.90;;;;;;6158311;23;20076;-82
2022/01/23 00:06:54;;;;;;;15.55;5.15;;;5.80;99.90;;;;;;6155284;23;20365;-82
2022/01/23 00:09:20;;;;;;;16.92;5.53;;;5.80;99.90;;;;;;6156324;23;20025;-82
2022/01/23 00:11:51;;;;;;;12.70;5.13;;;6.00;99.90;;;;;;6157853;23;20022;-82
2022/01/23 00:19:39;;;;;;;16.48;5.05;;;5.80;99.90;;;;;;6156734;23;20473;-82
2022/01/23 00:22:04;;;;;;;18.58;5.22;;;5.80;99.90;;;;;;6156075;23;20021;-82
2022/01/23 00:32:43;;;;;;;19.77;5.65;;;5.90;99.90;;;;;;6155945;23;20022;-82
2022/01/23 00:35:08;;;;;;;20.98;5.53;;;5.80;99.90;;;;;;6156949;23;20083;-82
2022/01/23 00:37:34;;;;;;;17.08;5.25;;;5.80;99.90;;;;;;6157886;23;20068;-82
2022/01/23 00:40:00;;;;;;;16.25;5.35;;;5.80;99.90;;;;;;6156966;23;20092;-82
2022/01/23 00:42:27;;;;;;;14.70;5.55;;;5.80;99.90;;;;;;6157443;23;20025;-82
2022/01/23 00:45:01;;;;;;;14.48;5.80;;;5.80;99.90;;;;;;6155924;23;20449;-82
2022/01/23 00:47:27;;;;;;;11.30;5.82;;;5.80;99.90;;;;;;6155666;23;20022;-82
2022/01/23 00:49:52;;;;;;;14.55;5.53;;;5.80;99.90;;;;;;6157724;23;20064;-82
2022/01/23 00:52:18;;;;;;;18.35;5.28;;;5.80;99.90;;;;;;6157670;23;20390;-82
2022/01/23 00:54:44;;;;;;;12.82;5.20;;;5.80;99.90;;;;;;6156485;23;20021;-82
2022/01/23 00:57:10;;;;;;;11.35;5.32;;;5.80;99.90;;;;;;6157294;23;20013;-82
2022/01/23 00:59:36;;;;;;;21.15;5.68;;;5.80;99.90;;;;;;6157667;23;20057;-82
2022/01/23 01:02:01;;;;;;;14.00;5.25;;;5.80;99.90;;;;;;6156404;23;20402;-82
2022/01/23 01:04:28;;;;;;;13.25;4.82;;;5.80;99.90;;;;;;6157314;23;20017;-82
2022/01/23 01:06:54;;;;;;;11.43;5.55;;;5.80;99.90;;;;;;6157057;23;20048;-82
2022/01/23 01:09:20;;;;;;;18.80;5.55;;;5.80;99.90;;;;;;6170886;23;20016;-82
2022/01/23 01:11:57;;;;;;;16.63;5.10;;;5.80;99.90;;;;;;6160949;23;20021;-82
2022/01/23 01:17:25;;;;;;;16.60;5.18;;;5.80;99.90;;;;;;6186387;23;20021;-82
2022/01/23 01:31:07;;;;;;;12.38;5.60;;;5.80;99.90;;;;;;6186063;23;20644;-82
2022/01/23 01:33:46;;;;;;;20.15;6.40;;;5.80;99.90;;;;;;6186795;23;20013;-82
2022/01/23 01:36:56;;;;;;;17.13;5.93;;;5.80;99.90;;;;;;6186241;23;20077;-82
2022/01/23 01:39:01;;;;;;;24.67;6.53;;;6.10;99.90;;;;;;6170764;23;20017;-82
2022/01/23 01:41:27;;;;;;;16.40;5.70;;;6.10;99.90;;;;;;6160324;23;20047;-82
2022/01/23 01:43:54;;;;;;;19.95;7.00;;;5.80;99.90;;;;;;6159558;23;20013;-82
2022/01/23 01:46:20;;;;;;;16.55;6.60;;;5.80;99.90;;;;;;6160392;23;20103;-83
2022/01/23 01:48:46;;;;;;;20.02;6.47;;;5.80;99.90;;;;;;6186598;23;20013;-83
2022/01/23 01:51:16;;;;;;;20.88;7.18;;;5.80;99.90;;;;;;6185878;23;20027;-83
2022/01/23 01:53:51;;;;;;;18.23;6.90;;;5.80;99.90;;;;;;6186648;23;20025;-83
2022/01/23 01:56:17;;;;;;;18.95;6.82;;;5.90;99.90;;;;;;6135698;23;20021;-82
2022/01/23 02:09:27;;;;;;;17.65;7.68;;;5.90;99.90;;;;;;6186319;23;20096;-82
2022/01/23 02:14:56;;;;;;;11.93;5.35;;;6.20;99.90;;;;;;6186683;23;20017;-82
2022/01/23 02:17:57;;;;;;;23.13;6.53;;;5.80;99.90;;;;;;6186818;23;20318;-82
2022/01/23 02:55:39;;;;;;;18.55;6.32;;;5.80;99.90;;;;;;6185401;23;20392;-82
2022/01/23 02:58:07;;;;;;;15.77;6.87;;;5.80;99.90;;;;;;6186080;23;20020;-82
2022/01/23 03:00:46;;;;;;;19.80;7.63;;;5.80;99.90;;;;;;6160009;23;20259;-82
2022/01/23 03:03:14;;;;;;;18.73;6.50;;;5.80;99.90;;;;;;6159989;23;20025;-82
2022/01/23 03:05:41;;;;;;;18.90;7.35;;;5.80;99.90;;;;;;6186255;23;20013;-82
2022/01/23 03:10:41;;;;;;;18.92;6.57;;;5.80;99.90;;;;;;6185800;23;20528;-82
2022/01/23 03:16:13;;;;;;;17.38;6.80;;;5.70;99.90;;;;;;6184943;23;20020;-82
2022/01/23 03:29:24;;;;;;;11.23;6.47;;;5.70;99.90;;;;;;6184953;23;20147;-82
2022/01/23 03:34:16;;;;;;;14.20;6.40;;;6.50;99.90;;;;;;6187881;23;20476;-82
2022/01/23 03:36:41;;;;;;;13.80;7.00;;;5.70;99.90;;;;;;6160656;23;20052;-82
2022/01/23 03:39:08;;;;;;;16.63;6.80;;;5.70;99.90;;;;;;6136869;23;20016;-82
2022/01/23 03:41:36;;;;;;;17.48;7.10;;;5.70;99.90;;;;;;6161570;23;20032;-82
2022/01/23 03:44:04;;;;;;;14.23;6.18;;;5.80;99.90;;;;;;6187148;23;20067;-82
2022/01/23 03:49:31;;;;;;;17.80;6.50;;;5.70;99.90;;;;;;6188267;23;20079;-82
2022/01/23 03:52:02;;;;;;;11.40;5.68;;;6.20;99.90;;;;;;6160351;23;20048;-82
2022/01/23 03:54:28;;;;;;;16.70;6.68;;;5.70;99.90;;;;;;6187943;23;20013;-82
2022/01/23 03:56:59;;;;;;;16.38;6.72;;;5.70;99.90;;;;;;6160316;23;20049;-82
2022/01/23 03:59:25;;;;;;;12.60;6.03;;;5.70;99.90;;;;;;6188045;23;20028;-82
2022/01/23 04:01:51;;;;;;;11.65;5.88;;;5.70;99.90;;;;;;6187657;23;20017;-82
2022/01/23 04:04:38;;;;;;;15.30;6.50;;;5.70;99.90;;;;;;6187062;23;20013;-82
2022/01/23 04:07:06;;;;;;;17.77;6.85;;;5.60;99.90;;;;;;6187667;23;20445;-82
2022/01/23 04:09:32;;;;;;;12.20;6.50;;;5.60;99.90;;;;;;6187461;23;20024;-82
2022/01/23 04:11:59;;;;;;;17.23;6.75;;;5.70;99.90;;;;;;6160157;23;20029;-82
2022/01/23 04:14:27;;;;;;;16.02;6.75;;;5.60;99.90;;;;;;6187922;23;20084;-82
2022/01/23 04:19:59;;;;;;;11.68;5.72;;;5.60;99.90;;;;;;6187019;23;20063;-82
2022/01/23 05:00:13;;;;;;;19.43;5.87;;;5.60;99.90;;;;;;6186136;23;20056;-82
2022/01/23 05:03:22;;;;;;;15.82;6.05;;;5.60;99.90;;;;;;6187455;23;20299;-82
2022/01/23 05:05:34;;;;;;;14.93;6.40;;;6.10;99.90;;;;;;6186813;23;20025;-82
2022/01/23 05:08:04;;;;;;;19.75;5.97;;;5.60;99.90;;;;;;6135125;23;20076;-82
2022/01/23 05:10:30;;;;;;;19.70;6.18;;;5.60;99.90;;;;;;6186749;23;20097;-82
2022/01/23 05:12:56;;;;;;;15.38;5.85;;;5.60;99.90;;;;;;6160564;23;20061;-82
2022/01/23 05:15:22;;;;;;;18.80;6.18;;;5.60;99.90;;;;;;6186041;23;20020;-82
2022/01/23 05:17:48;;;;;;;11.95;5.15;;;5.60;99.90;;;;;;6187058;23;20036;-82
2022/01/23 05:20:16;;;;;;;14.48;6.00;;;5.60;99.90;;;;;;6186843;23;20013;-82
2022/01/23 05:22:47;;;;;;;17.88;5.90;;;6.00;99.90;;;;;;6186364;23;20021;-82
2022/01/23 05:25:26;;;;;;;24.88;6.88;;;5.60;99.90;;;;;;6186905;23;20051;-82
2022/01/23 05:27:53;;;;;;;22.70;6.22;;;5.60;99.90;;;;;;6186902;23;20021;-82
2022/01/23 05:30:20;;;;;;;18.00;5.72;;;5.60;99.90;;;;;;6186231;23;20067;-82
2022/01/23 05:32:46;;;;;;;16.08;5.43;;;5.60;99.90;;;;;;6160407;23;20453;-82
2022/01/23 05:35:16;;;;;;;21.48;7.18;;;5.60;99.90;;;;;;6187157;23;20013;-83
2022/01/23 05:37:42;;;;;;;74.93;8.07;;;5.60;99.90;;;;;;6186049;23;20013;-82
2022/01/23 05:40:12;;;;;;;98.40;7.78;;;5.60;99.90;;;;;;6160791;23;20024;-82
2022/01/23 05:42:38;;;;;;;43.67;6.97;;;5.60;99.90;;;;;;6135219;23;20092;-82
2022/01/23 05:45:04;;;;;;;83.50;9.07;;;5.60;99.90;;;;;;6186969;23;20048;-82
2022/01/23 05:47:30;;;;;;;101.63;9.50;;;5.60;99.90;;;;;;6187028;23;20021;-82
2022/01/23 05:49:56;;;;;;;70.93;8.65;;;5.60;99.90;;;;;;6185757;23;20017;-82
2022/01/23 05:52:22;;;;;;;102.40;9.90;;;5.80;99.90;;;;;;6186818;23;20027;-82
2022/01/23 05:54:47;;;;;;;76.97;7.10;;;5.60;99.90;;;;;;6186263;23;20028;-82
2022/01/23 05:57:13;;;;;;;145.73;9.10;;;5.60;99.90;;;;;;6159254;23;20027;-82
2022/01/23 05:59:39;;;;;;;78.88;6.85;;;5.60;99.90;;;;;;6160095;23;20508;-82
2022/01/23 06:02:05;;;;;;;114.65;9.88;;;5.60;99.90;;;;;;6160123;23;20017;-82
2022/01/23 06:04:32;;;;;;;60.60;5.65;;;5.60;99.90;;;;;;6159248;23;20441;-82
2022/01/23 06:06:59;;;;;;;78.70;6.47;;;5.60;99.90;;;;;;6160152;23;20092;-82
2022/01/23 06:09:25;;;;;;;96.82;8.52;;;5.70;99.90;;;;;;6186129;23;20341;-82
2022/01/23 06:11:52;;;;;;;52.22;5.82;;;5.70;99.90;;;;;;6159136;23;20053;-82
2022/01/23 06:14:18;;;;;;;97.60;8.60;;;5.60;99.90;;;;;;6160037;23;20028;-82
2022/01/23 06:16:44;;;;;;;63.45;7.07;;;5.60;99.90;;;;;;6160012;23;20024;-82
2022/01/23 06:19:10;;;;;;;82.60;7.45;;;5.60;99.90;;;;;;6185719;23;20016;-82
2022/01/23 06:21:36;;;;;;;65.72;7.65;;;5.60;99.90;;;;;;6186359;23;20017;-82
2022/01/23 06:26:46;;;;;;;177.45;12.63;;;5.60;99.90;;;;;;6159341;23;20025;-82
2022/01/23 06:29:14;;;;;;;68.15;7.88;;;5.60;99.90;;;;;;6186274;23;20016;-82
2022/01/23 06:31:40;;;;;;;89.65;8.80;;;5.60;99.90;;;;;;6185381;23;20048;-82
2022/01/23 06:34:06;;;;;;;45.60;7.47;;;5.60;99.90;;;;;;6186535;23;20013;-82
2022/01/23 06:36:34;;;;;;;72.18;9.38;;;5.60;99.90;;;;;;6186245;23;20024;-82
2022/01/23 06:39:01;;;;;;;85.03;12.23;;;5.60;99.90;;;;;;6159227;23;20021;-82
2022/01/23 06:41:27;;;;;;;101.43;12.27;;;5.60;99.90;;;;;;6186461;23;20017;-82
2022/01/23 06:43:53;;;;;;;46.28;8.23;;;5.60;99.90;;;;;;6159820;23;20385;-82
2022/01/23 06:46:19;;;;;;;48.90;8.88;;;5.90;99.90;;;;;;6134399;23;20025;-82
2022/01/23 06:48:44;;;;;;;124.53;15.43;;;5.60;99.90;;;;;;6186039;23;20024;-82
2022/01/23 06:51:10;;;;;;;43.47;7.95;;;5.60;99.90;;;;;;6185956;23;20092;-82
2022/01/23 06:53:36;;;;;;;182.93;15.40;;;5.60;99.90;;;;;;6185481;23;20102;-82
2022/01/23 06:56:01;;;;;;;60.67;8.07;;;5.60;99.90;;;;;;6159708;23;20388;-82
2022/01/23 06:58:27;;;;;;;58.63;9.23;;;5.60;99.90;;;;;;6186383;23;20073;-82
2022/01/23 07:00:53;;;;;;;80.30;8.60;;;5.60;99.90;;;;;;6185421;23;20072;-82
2022/01/23 07:03:19;;;;;;;68.40;7.47;;;5.60;99.90;;;;;;6185989;23;20031;-82
2022/01/23 07:05:45;;;;;;;49.83;7.40;;;5.60;99.90;;;;;;6185641;23;20091;-82
2022/01/23 07:08:11;;;;;;;45.97;6.70;;;5.60;99.90;;;;;;6158675;23;20044;-82
2022/01/23 07:10:36;;;;;;;95.90;10.70;;;5.60;99.90;;;;;;6186295;23;20017;-82
2022/01/23 07:13:02;;;;;;;71.70;8.73;;;5.60;99.90;;;;;;6185863;23;20017;-82
2022/01/23 07:15:28;;;;;;;121.57;10.60;;;5.60;99.90;;;;;;6158515;23;20017;-82
2022/01/23 07:17:53;;;;;;;59.40;8.75;;;5.60;99.90;;;;;;6186178;23;20028;-82
2022/01/23 07:20:19;;;;;;;57.28;8.55;;;5.60;99.90;;;;;;6185970;23;20446;-82
2022/01/23 07:22:45;;;;;;;49.20;7.55;;;5.60;99.90;;;;;;6184810;23;20044;-82
2022/01/23 07:25:11;;;;;;;53.78;7.63;;;5.60;99.90;;;;;;6185754;23;20017;-82
2022/01/23 07:27:42;;;;;;;48.38;8.45;;;5.50;99.90;;;;;;6186194;23;20017;-82
2022/01/23 07:30:21;;;;;;;13.02;5.15;;;5.50;99.90;;;;;;6184927;23;20028;-82
2022/01/23 07:32:47;;;;;;;24.00;5.78;;;5.50;99.90;;;;;;6186087;23;20021;-82
2022/01/23 07:35:12;;;;;;;12.85;5.05;;;5.50;99.90;;;;;;6185150;23;20053;-82
2022/01/23 07:37:38;;;;;;;12.68;4.90;;;5.40;99.90;;;;;;6186178;23;20402;-82
2022/01/23 07:40:04;;;;;;;9.15;4.82;;;5.40;99.90;;;;;;6186226;23;20013;-82
2022/01/23 07:42:30;;;;;;;17.45;6.00;;;5.40;99.90;;;;;;6184788;23;20009;-82
2022/01/23 07:44:57;;;;;;;10.73;4.95;;;5.50;99.90;;;;;;6186103;23;20374;-82
2022/01/23 07:47:23;;;;;;;11.02;5.55;;;5.40;99.90;;;;;;6185718;23;20028;-82
2022/01/23 07:49:50;;;;;;;12.63;5.50;;;5.40;99.90;;;;;;6185209;23;20032;-82
2022/01/23 07:52:17;;;;;;;9.88;4.82;;;5.40;99.90;;;;;;6185553;23;20017;-82
2022/01/23 07:54:43;;;;;;;14.52;5.32;;;5.50;99.90;;;;;;6185679;23;20023;-81
2022/01/23 07:57:08;;;;;;;11.15;4.60;;;5.40;99.90;;;;;;6185123;23;20049;-82
2022/01/23 07:59:34;;;;;;;11.05;4.93;;;5.40;99.90;;;;;;6186012;23;20012;-82
2022/01/23 08:02:01;;;;;;;10.93;5.20;;;5.50;99.90;;;;;;6186034;23;20101;-82
2022/01/23 08:04:27;;;;;;;7.50;3.90;;;5.50;99.90;;;;;;6158434;23;20056;-82
2022/01/23 08:07:30;;;;;;;9.75;4.45;;;5.50;99.90;;;;;;6159302;23;20021;-82
2022/01/23 08:09:40;;;;;;;11.82;5.35;;;5.50;99.90;;;;;;6184796;23;20025;-82
2022/01/23 08:12:06;;;;;;;10.82;5.00;;;5.50;99.90;;;;;;6158350;23;20020;-82
2022/01/23 08:14:32;;;;;;;5.13;3.65;;;5.50;99.90;;;;;;6185994;23;20017;-82
2022/01/23 08:16:57;;;;;;;11.98;5.38;;;5.60;99.90;;;;;;6186337;23;20013;-82
2022/01/23 08:19:23;;;;;;;9.73;4.50;;;5.60;99.90;;;;;;6186409;23;20053;-82
2022/01/23 08:21:49;;;;;;;9.40;4.65;;;5.60;99.90;;;;;;6161167;23;20025;-82
2022/01/23 08:24:14;;;;;;;7.75;4.28;;;5.60;99.90;;;;;;6186824;23;20036;-82
2022/01/23 08:26:40;;;;;;;8.15;4.57;;;5.60;99.90;;;;;;6187401;23;20341;-82
2022/01/23 08:29:07;;;;;;;9.25;4.82;;;5.60;99.90;;;;;;6160943;23;20013;-82
2022/01/23 08:31:32;;;;;;;7.07;4.72;;;5.60;99.90;;;;;;6160129;23;20048;-82
2022/01/23 08:33:58;;;;;;;9.02;5.13;;;5.70;99.90;;;;;;6160892;23;20437;-82
2022/01/23 08:36:24;;;;;;;9.38;4.65;;;5.60;99.90;;;;;;6187255;23;20028;-82
2022/01/23 08:38:49;;;;;;;10.70;4.78;;;5.70;99.90;;;;;;6186246;23;20092;-82
2022/01/23 08:43:44;;;;;;;11.57;4.57;;;5.70;99.90;;;;;;6187275;23;20091;-82
2022/01/23 08:46:10;;;;;;;7.28;4.97;;;5.70;99.90;;;;;;6159987;23;20021;-82
2022/01/23 08:48:36;;;;;;;7.75;4.63;;;5.70;99.90;;;;;;6187550;23;20017;-82
2022/01/23 08:51:02;;;;;;;7.28;4.60;;;5.80;99.90;;;;;;6160809;23;20409;-82
2022/01/23 08:53:28;;;;;;;8.05;4.75;;;5.80;99.90;;;;;;6186516;23;20025;-82
2022/01/23 08:55:54;;;;;;;10.57;4.85;;;5.80;99.90;;;;;;6160867;23;20099;-82
2022/01/23 08:58:19;;;;;;;7.63;4.70;;;5.80;99.90;;;;;;6187117;23;20376;-82
2022/01/23 09:00:45;;;;;;;12.50;4.88;;;5.90;99.90;;;;;;6159747;23;20017;-82
2022/01/23 09:03:12;;;;;;;12.20;5.10;;;5.90;99.90;;;;;;6187364;23;20023;-82
2022/01/23 09:05:38;;;;;;;8.15;5.20;;;5.90;99.90;;;;;;6187684;23;20021;-82
2022/01/23 09:08:04;;;;;;;9.93;5.03;;;6.30;99.90;;;;;;6186619;23;20017;-82
2022/01/23 09:10:39;;;;;;;8.63;5.68;;;6.00;99.90;;;;;;6186866;23;20370;-82
2022/01/23 09:15:31;;;;;;;9.82;6.03;;;6.10;99.90;;;;;;6159680;23;20057;-82
2022/01/23 09:17:57;;;;;;;7.35;5.53;;;6.00;99.90;;;;;;6187007;23;20013;-82
2022/01/23 09:20:23;;;;;;;8.57;5.75;;;6.10;99.90;;;;;;6160056;23;20092;-82
2022/01/23 09:22:49;;;;;;;10.50;5.82;;;6.10;99.90;;;;;;6186960;23;20020;-82
2022/01/23 09:25:14;;;;;;;7.13;5.18;;;6.10;99.90;;;;;;6187124;23;20013;-82
2022/01/23 09:27:40;;;;;;;11.55;5.88;;;6.10;99.90;;;;;;6159522;23;20013;-82
2022/01/23 09:30:17;;;;;;;8.43;5.60;;;6.20;99.90;;;;;;6186392;23;20044;-82
2022/01/23 09:32:43;;;;;;;8.68;4.40;;;6.20;99.90;;;;;;6187059;23;20017;-82
2022/01/23 09:35:10;;;;;;;8.55;5.35;;;6.20;99.90;;;;;;6186139;23;20043;-82
2022/01/23 09:37:35;;;;;;;7.25;5.55;;;6.20;99.90;;;;;;6186812;23;20086;-82
2022/01/23 09:40:02;;;;;;;6.10;4.38;;;6.20;99.90;;;;;;6186673;23;20449;-82
2022/01/23 09:42:36;;;;;;;7.38;4.70;;;6.30;99.90;;;;;;6159506;23;20025;-82
2022/01/23 09:45:07;;;;;;;6.43;4.97;;;6.30;99.90;;;;;;6186693;23;20021;-82
2022/01/23 09:47:35;;;;;;;7.90;4.82;;;6.30;99.90;;;;;;6160462;23;20453;-82
2022/01/23 09:50:03;;;;;;;7.55;4.35;;;6.40;99.90;;;;;;6185992;23;20013;-82
2022/01/23 09:52:32;;;;;;;8.98;4.53;;;6.40;99.90;;;;;;6186405;23;20457;-82
2022/01/23 09:55:01;;;;;;;6.28;4.70;;;6.40;99.90;;;;;;6186781;23;20523;-82
2022/01/23 09:57:30;;;;;;;5.38;4.30;;;6.50;99.90;;;;;;6185968;23;20013;-83
2022/01/23 09:59:58;;;;;;;7.93;4.10;;;6.50;99.90;;;;;;6160116;23;20472;-83
2022/01/23 10:02:24;;;;;;;3.83;3.42;;;6.50;99.90;;;;;;6135516;23;20013;-83
2022/01/23 10:04:51;;;;;;;14.20;5.88;;;6.50;99.90;;;;;;6185847;23;20013;-82
2022/01/23 10:07:18;;;;;;;8.25;3.75;;;6.50;99.90;;;;;;6160102;23;20454;-82
2022/01/23 10:09:46;;;;;;;3.90;3.50;;;7.00;99.90;;;;;;6182162;23;20036;-82
2022/01/23 10:12:12;;;;;;;4.88;3.47;;;6.50;99.90;;;;;;6160404;23;20024;-82
2022/01/23 10:14:38;;;;;;;5.85;3.65;;;6.50;99.90;;;;;;6160067;23;20017;-83
2022/01/23 10:17:06;;;;;;;5.57;3.60;;;6.60;99.90;;;;;;6185748;23;20330;-82
2022/01/23 10:19:33;;;;;;;4.97;3.97;;;6.60;99.90;;;;;;6186672;23;20092;-82
2022/01/23 10:22:00;;;;;;;5.63;3.38;;;6.60;99.90;;;;;;6186390;23;20024;-82
2022/01/23 10:24:28;;;;;;;5.32;3.53;;;6.60;99.90;;;;;;6185337;23;20013;-82
2022/01/23 10:26:57;;;;;;;9.07;3.72;;;6.70;99.90;;;;;;6186276;23;20021;-82
2022/01/23 10:29:33;;;;;;;7.85;3.35;;;6.70;99.90;;;;;;6159876;23;20028;-82
2022/01/23 10:32:04;;;;;;;4.35;3.55;;;6.70;99.90;;;;;;6185637;23;20021;-83
2022/01/23 10:34:40;;;;;;;6.18;3.90;;;6.70;99.90;;;;;;6186579;23;20080;-83
2022/01/23 10:37:06;;;;;;;8.15;3.83;;;6.80;99.90;;;;;;6186511;23;20017;-82
2022/01/23 10:39:44;;;;;;;4.57;3.20;;;6.80;99.90;;;;;;6185331;23;20326;-82
2022/01/23 10:46:38;;;;;;;5.13;3.08;;;7.00;99.90;;;;;;6186323;23;20095;-83
2022/01/23 10:48:00;;;;;;;4.97;3.00;;;6.80;99.90;;;;;;6186461;23;20091;-83
2022/01/23 10:50:26;;;;;;;4.88;3.40;;;6.80;99.90;;;;;;6159808;23;20483;-83
2022/01/23 10:52:53;;;;;;;3.17;2.70;;;6.80;99.90;;;;;;6159029;23;20025;-83
2022/01/23 10:55:30;;;;;;;5.13;3.20;;;6.90;99.90;;;;;;6135078;23;20028;-83
2022/01/23 10:58:00;;;;;;;3.45;2.92;;;6.90;99.90;;;;;;6160128;23;20087;-82
2022/01/23 11:00:30;;;;;;;4.55;3.00;;;6.90;99.90;;;;;;6134165;23;20024;-82
2022/01/23 11:03:00;;;;;;;4.07;2.78;;;7.00;99.90;;;;;;6159723;23;20017;-82
2022/01/23 11:05:38;;;;;;;5.32;2.63;;;7.10;99.90;;;;;;6186349;23;20444;-83
2022/01/23 11:08:22;;;;;;;2.95;2.50;;;7.10;99.90;;;;;;6185154;23;20013;-83
2022/01/23 11:11:14;;;;;;;3.95;2.75;;;7.10;99.90;;;;;;6186524;23;20032;-83
2022/01/23 11:19:22;;;;;;;3.90;2.65;;;7.20;99.90;;;;;;6185887;23;20483;-83
2022/01/23 11:21:49;;;;;;;3.67;2.35;;;7.20;99.90;;;;;;6158266;23;20104;-83
2022/01/23 11:24:15;;;;;;;2.50;2.20;;;7.20;99.90;;;;;;6159566;23;20025;-83
2022/01/23 11:26:41;;;;;;;3.65;2.30;;;7.20;99.90;;;;;;6185745;23;20314;-83
2022/01/23 11:29:16;;;;;;;2.92;2.38;;;7.20;99.90;;;;;;6158545;23;20028;-83
2022/01/23 11:31:43;;;;;;;3.17;2.20;;;7.30;99.90;;;;;;6159493;23;20028;-83
2022/01/23 11:34:12;;;;;;;6.50;2.08;;;7.30;99.90;;;;;;6184907;23;20021;-83
2022/01/23 11:36:38;;;;;;;2.33;1.83;;;7.30;99.90;;;;;;6134917;23;20024;-83
2022/01/23 11:39:13;;;;;;;3.15;2.55;;;7.30;99.90;;;;;;6159518;23;20025;-83
2022/01/23 11:56:25;;;;;;;5.65;3.10;;;7.40;99.90;;;;;;6160785;23;20024;-83
2022/01/23 11:59:12;;;;;;;4.80;2.72;;;7.50;99.90;;;;;;6161933;23;20071;-83
2022/01/23 12:01:40;;;;;;;3.38;2.70;;;7.50;99.90;;;;;;6188065;23;20311;-83
2022/01/23 12:04:11;;;;;;;4.95;3.13;;;7.50;99.90;;;;;;6160414;23;20453;-84
2022/01/23 12:06:40;;;;;;;4.00;3.40;;;7.50;99.90;;;;;;6161308;23;20088;-83
2022/01/23 12:09:18;;;;;;;7.07;3.38;;;7.50;99.90;;;;;;6156120;23;20096;-83
2022/01/23 12:12:09;;;;;;;7.07;3.90;;;7.50;99.90;;;;;;6156242;23;20035;-83
2022/01/23 12:17:20;;;;;;;5.95;3.80;;;7.60;99.90;;;;;;6155342;23;20022;-83
2022/01/23 12:20:01;;;;;;;6.13;4.05;;;7.60;99.90;;;;;;6158083;23;20028;-83
2022/01/23 12:22:30;;;;;;;4.57;3.80;;;7.60;99.90;;;;;;6157787;23;20025;-83
2022/01/23 12:25:05;;;;;;;6.32;4.55;;;7.60;99.90;;;;;;6156983;23;20095;-84
2022/01/23 12:27:31;;;;;;;6.40;4.50;;;7.60;99.90;;;;;;6158071;23;20025;-83
2022/01/23 12:30:33;;;;;;;5.15;4.10;;;7.60;99.90;;;;;;6156152;23;20021;-83
2022/01/23 12:33:23;;;;;;;7.53;4.43;;;7.60;99.90;;;;;;6125367;23;20025;-84
2022/01/23 12:36:14;;;;;;;8.82;4.03;;;7.60;99.90;;;;;;6156164;23;20025;-84
2022/01/23 12:38:48;;;;;;;4.60;3.38;;;7.60;99.90;;;;;;6144680;23;20077;-84
2022/01/23 12:41:32;;;;;;;5.95;3.47;;;7.60;99.90;;;;;;6156129;23;20020;-83
2022/01/23 12:44:07;;;;;;;7.85;4.07;;;7.60;99.90;;;;;;6157616;23;20480;-84
2022/01/23 12:46:36;;;;;;;6.03;3.95;;;7.60;99.90;;;;;;6156732;23;20024;-84
2022/01/23 12:49:33;;;;;;;5.88;4.40;;;7.60;99.90;;;;;;6155974;23;20092;-84
2022/01/23 12:52:10;;;;;;;5.25;3.72;;;7.60;99.90;;;;;;6134192;23;20052;-83
2022/01/23 12:54:57;;;;;;;7.80;3.40;;;7.60;99.90;;;;;;6155974;23;20013;-83
2022/01/23 12:57:34;;;;;;;8.63;3.45;;;7.60;99.90;;;;;;6157799;23;20018;-83
2022/01/23 13:00:05;;;;;;;5.45;3.15;;;7.60;99.90;;;;;;6156854;23;20022;-83
2022/01/23 13:02:42;;;;;;;6.10;4.43;;;7.60;99.90;;;;;;6157680;23;20045;-83
2022/01/23 13:05:10;;;;;;;6.93;3.50;;;7.70;99.90;;;;;;6155336;23;20030;-83
2022/01/23 13:08:18;;;;;;;7.13;3.92;;;7.60;99.90;;;;;;6156304;23;20088;-83
2022/01/23 13:10:53;;;;;;;7.60;3.95;;;7.60;99.90;;;;;;6152534;23;20462;-83
2022/01/23 13:13:34;;;;;;;7.68;4.15;;;7.60;99.90;;;;;;6156195;23;20021;-83
2022/01/23 13:16:19;;;;;;;6.95;4.20;;;7.60;99.90;;;;;;6157570;23;20023;-83
2022/01/23 13:19:17;;;;;;;5.15;3.83;;;7.60;99.90;;;;;;6157341;23;20446;-83
2022/01/23 13:30:02;;;;;;;5.63;3.55;;;7.60;99.90;;;;;;6157158;23;20101;-83
2022/01/23 13:35:05;;;;;;;4.68;3.10;;;7.50;99.90;;;;;;6156487;23;20024;-83
2022/01/23 13:37:34;;;;;;;4.72;2.92;;;7.50;99.90;;;;;;6155520;23;20025;-83
2022/01/23 13:40:15;;;;;;;5.68;3.30;;;7.50;99.90;;;;;;6157293;23;20068;-83
2022/01/23 13:59:24;;;;;;;4.43;3.20;;;7.50;99.90;;;;;;6157205;23;20092;-83
2022/01/23 14:01:55;;;;;;;5.53;3.30;;;7.50;99.90;;;;;;6155915;23;20088;-83
2022/01/23 14:04:24;;;;;;;8.10;3.65;;;7.50;99.90;;;;;;6157587;23;20381;-83
2022/01/23 14:06:51;;;;;;;5.80;3.33;;;7.50;99.90;;;;;;6155108;23;20017;-83
2022/01/23 14:09:17;;;;;;;8.25;4.20;;;7.50;99.90;;;;;;6153939;23;20112;-83
2022/01/23 14:11:45;;;;;;;9.15;4.22;;;7.40;99.90;;;;;;6157003;23;20021;-83
2022/01/23 14:14:19;;;;;;;9.00;4.43;;;7.40;99.90;;;;;;6156989;23;20014;-83
2022/01/23 14:16:46;;;;;;;6.53;4.43;;;7.40;99.90;;;;;;6155669;23;20398;-83
2022/01/23 14:19:22;;;;;;;7.32;3.80;;;7.40;99.90;;;;;;6155157;23;20022;-84
2022/01/23 14:21:50;;;;;;;7.95;4.38;;;7.40;99.90;;;;;;6157036;23;20044;-83
2022/01/23 14:24:29;;;;;;;9.13;4.28;;;7.40;99.90;;;;;;6155946;23;20017;-83
2022/01/23 14:27:03;;;;;;;7.28;3.88;;;7.40;99.90;;;;;;6157086;23;20017;-83
2022/01/23 14:29:33;;;;;;;7.03;4.07;;;7.40;99.90;;;;;;6155092;23;20049;-83
2022/01/23 14:32:15;;;;;;;6.75;3.92;;;7.30;99.90;;;;;;6155586;23;20037;-83
2022/01/23 14:34:41;;;;;;;5.13;3.90;;;7.30;99.90;;;;;;6155037;23;20017;-83
2022/01/23 14:37:08;;;;;;;7.60;4.20;;;7.30;99.90;;;;;;6155487;23;20017;-83
2022/01/23 14:39:35;;;;;;;9.80;5.05;;;7.30;99.90;;;;;;6156413;23;20016;-83
2022/01/23 14:42:12;;;;;;;8.95;5.20;;;7.30;99.90;;;;;;6154888;23;20033;-83
2022/01/23 14:44:38;;;;;;;13.38;6.32;;;7.30;99.90;;;;;;6155446;23;20021;-83
2022/01/23 14:47:05;;;;;;;10.98;6.43;;;7.30;99.90;;;;;;6154853;23;20026;-83
2022/01/23 14:49:32;;;;;;;12.35;6.75;;;7.20;99.90;;;;;;6154932;23;20346;-83
2022/01/23 14:52:01;;;;;;;12.95;6.72;;;7.20;99.90;;;;;;6155388;23;20024;-83
2022/01/23 14:54:31;;;;;;;7.35;5.18;;;7.20;99.90;;;;;;6156306;23;20512;-83
2022/01/23 14:57:01;;;;;;;8.30;5.38;;;7.20;99.90;;;;;;6154879;23;20017;-83
2022/01/23 14:59:30;;;;;;;6.60;5.07;;;7.20;99.90;;;;;;6155329;23;20057;-83
2022/01/23 15:01:56;;;;;;;6.32;4.70;;;7.20;99.90;;;;;;6155502;23;20029;-83
2022/01/23 15:04:23;;;;;;;6.07;4.40;;;7.20;99.90;;;;;;6154793;23;20025;-83
2022/01/23 15:06:52;;;;;;;9.57;4.55;;;7.20;99.90;;;;;;6155562;23;20089;-83
2022/01/23 15:09:20;;;;;;;7.47;4.43;;;7.10;99.90;;;;;;6167700;23;20088;-83
2022/01/23 15:11:47;;;;;;;5.45;4.45;;;7.10;99.90;;;;;;6186155;23;20100;-83
2022/01/23 15:14:13;;;;;;;5.68;3.75;;;7.10;99.90;;;;;;6185372;23;20020;-83
2022/01/23 15:16:42;;;;;;;6.57;4.30;;;7.10;99.90;;;;;;6159706;23;20025;-83
2022/01/23 15:19:09;;;;;;;10.65;4.20;;;7.10;99.90;;;;;;6185348;23;20095;-83
2022/01/23 15:21:36;;;;;;;7.32;3.72;;;7.10;99.90;;;;;;6186268;23;20337;-83
2022/01/23 15:24:02;;;;;;;6.85;4.07;;;7.10;99.90;;;;;;6159647;23;20088;-83
2022/01/23 15:26:31;;;;;;;7.03;3.65;;;7.00;99.90;;;;;;6158249;23;20040;-83
2022/01/23 15:28:57;;;;;;;6.50;4.20;;;7.00;99.90;;;;;;6185881;23;20017;-83
2022/01/23 15:31:24;;;;;;;5.45;3.78;;;7.00;99.90;;;;;;6159452;23;20020;-83
2022/01/23 15:33:50;;;;;;;6.35;3.53;;;7.00;99.90;;;;;;6185245;23;20096;-83
2022/01/23 15:36:16;;;;;;;5.93;3.25;;;7.00;99.90;;;;;;6159594;23;20017;-83
2022/01/23 15:38:44;;;;;;;4.05;3.33;;;7.00;99.90;;;;;;6186171;23;20330;-83
2022/01/23 15:41:10;;;;;;;4.95;3.72;;;7.00;99.90;;;;;;6158506;23;20497;-83
2022/01/23 15:43:36;;;;;;;9.07;3.80;;;6.90;99.90;;;;;;6159390;23;20028;-83
2022/01/23 15:46:03;;;;;;;5.93;4.28;;;7.00;99.90;;;;;;6159327;23;20021;-83
2022/01/23 15:48:30;;;;;;;6.35;4.00;;;6.90;99.90;;;;;;6185119;23;20099;-83
2022/01/23 15:51:00;;;;;;;7.53;4.38;;;6.90;99.90;;;;;;6159395;23;20025;-84
2022/01/23 15:53:26;;;;;;;4.85;3.55;;;6.90;99.90;;;;;;6185645;23;20511;-83
2022/01/23 15:55:53;;;;;;;7.53;4.10;;;6.90;99.90;;;;;;6158470;23;20017;-83
2022/01/23 15:58:19;;;;;;;6.20;3.80;;;6.90;99.90;;;;;;6159398;23;20071;-83
2022/01/23 16:00:45;;;;;;;8.27;4.40;;;6.80;99.90;;;;;;6186045;23;20084;-83
2022/01/23 16:03:12;;;;;;;5.88;3.72;;;6.80;99.90;;;;;;6158448;23;20516;-83
2022/01/23 16:05:37;;;;;;;7.57;3.92;;;6.80;99.90;;;;;;6185668;23;20472;-83
2022/01/23 16:08:03;;;;;;;6.45;3.50;;;6.80;99.90;;;;;;6186047;23;20017;-83
2022/01/23 16:10:29;;;;;;;7.13;3.92;;;6.80;99.90;;;;;;6184483;23;20024;-83
2022/01/23 16:12:55;;;;;;;8.40;4.82;;;6.80;99.90;;;;;;6159303;23;20028;-83
2022/01/23 16:15:21;;;;;;;7.03;4.32;;;6.70;99.90;;;;;;6185596;23;20344;-83
2022/01/23 16:17:48;;;;;;;9.88;4.47;;;6.70;99.90;;;;;;6185283;23;20341;-83
2022/01/23 16:20:15;;;;;;;9.10;4.22;;;6.70;99.90;;;;;;6185657;23;20465;-83
2022/01/23 16:22:43;;;;;;;5.35;3.80;;;6.70;99.90;;;;;;6158455;23;20029;-83